Fryeburg, ME

8:01 AM EST on February 12, 2016 (GMT -0500)
Eastern Slopes Regional | | Change Station
CLOSE
Current Station
Airport
Location: Fryeburg,
Elevation: 453 ft
Nearby Weather Stations
Active Advisory: Wind Chill Watch

Elev 453 ft 43.99 °N, 70.95 °W | Updated 7 minutes ago

Clear
Clear
2 °F
Feels Like -6 °F
N
4
Wind Variable Wind from NNE

Today
High -- | Low -- °F
--% Chance of Precip.
Yesterday
High -- | Low -- °F
Precip. -- in
Pressure 30.10 in
Visibility 10.0 miles
Clouds Clear
Windchill -6 °F
Dew Point -12 °F
Humidity 52%
Rainfall 0.00 in
Snow Depth Not available.
6:47 AM 5:08 PM
Waxing Crescent, 20% visible
METAR KIZG 121254Z AUTO 02003KT 10SM CLR M17/M24 A3006 RMK AO2 SLP191 T11671244
Pressure 30.10 in
Visibility 10.0 miles
Clouds Clear
Windchill -6 °F
Dew Point -12 °F
Humidity 52%
Rainfall 0.00 in
Snow Depth Not available.
6:47 AM 5:08 PM
Waxing Crescent, 20% visible
METAR KIZG 121254Z AUTO 02003KT 10SM CLR M17/M24 A3006 RMK AO2 SLP191 T11671244

10-Day Weather Forecast

Almanac

Astronomy

Feb. 12, 2016 Rise Set
Actual Time
Civil Twilight
Nautical Twilight
Astronomical Twilight
Moon
Length of Visible Light
Length of Day
Tomorrow will be .
, % of the Moon is Illuminated

Today's Extremes

State Highs State Lows

Community

WunderPhotos

Upload Photos

1,892,305 photos uploaded!

WunderBlog® & News

Nearby

Air Quality

  Air Quality AQ Index Pollutant
Not available.

Snow Depth

Station Depth Elevation

Earthquake Activity

City Distance Mag. Time & Date
Minimum magnitude displayed is 2.5.

Coastal Water Temperatures

Place Temperature

Stations

Nearby Weather Stations

Station Location Temp. Windchill Dew Point Humidity Wind Precip. Elev Updated Type
                   

Watches & Warnings

Wind Chill Watch
Issued: 3:52 AM EST Feb. 12, 2016 – National Weather Service

... Wind chill watch remains in effect from late Saturday night
through Sunday morning...

* hazard types... dangerous wind chill readings.

* Wind chill... as low as 38 below due to temperatures 15 below
to zero... and winds northwest 10 to 15 mph with gusts up to 25
mph.

* Timing... late Saturday night and Sunday morning.

* Impacts... frostbite and hypothermia if unprotected from the
cold.

* Winds... northwest 10 to 15 mph with gusts up to 25 mph.

* Temperatures... 15 below to zero.

Precautionary/preparedness actions...

A wind chill watch means the there is the potential for a
combination of very cold air and strong winds to create
dangerously low wind chill values. Monitor the latest forecasts
and warnings for updates on this situation.